sensor_id;sensor_type;location;lat;lon;timestamp;temperature;humidity
20829;DHT22;10575;50.124;8.582;2022-10-16T00:00:52;15.30;99.90
20829;DHT22;10575;50.124;8.582;2022-10-16T00:03:18;15.30;99.90
20829;DHT22;10575;50.124;8.582;2022-10-16T00:05:44;15.40;99.90
20829;DHT22;10575;50.124;8.582;2022-10-16T00:08:11;15.40;99.90
20829;DHT22;10575;50.124;8.582;2022-10-16T00:10:37;15.40;99.90
20829;DHT22;10575;50.124;8.582;2022-10-16T00:13:03;15.50;99.90
20829;DHT22;10575;50.124;8.582;2022-10-16T00:15:30;15.40;99.90
20829;DHT22;10575;50.124;8.582;2022-10-16T00:17:55;15.50;99.90
20829;DHT22;10575;50.124;8.582;2022-10-16T00:20:21;15.50;99.90
20829;DHT22;10575;50.124;8.582;2022-10-16T00:22:46;15.60;99.90
20829;DHT22;10575;50.124;8.582;2022-10-16T00:25:12;15.60;99.90
20829;DHT22;10575;50.124;8.582;2022-10-16T00:27:37;15.60;99.90
20829;DHT22;10575;50.124;8.582;2022-10-16T00:30:03;15.60;99.90
20829;DHT22;10575;50.124;8.582;2022-10-16T00:32:29;15.70;99.90
20829;DHT22;10575;50.124;8.582;2022-10-16T00:34:55;15.70;99.90
20829;DHT22;10575;50.124;8.582;2022-10-16T00:37:21;15.70;99.90
20829;DHT22;10575;50.124;8.582;2022-10-16T00:39:46;15.70;99.90
20829;DHT22;10575;50.124;8.582;2022-10-16T00:42:17;15.80;99.90
20829;DHT22;10575;50.124;8.582;2022-10-16T00:44:45;15.90;99.90
20829;DHT22;10575;50.124;8.582;2022-10-16T00:47:15;15.90;99.90
20829;DHT22;10575;50.124;8.582;2022-10-16T00:49:43;16.00;99.90
20829;DHT22;10575;50.124;8.582;2022-10-16T00:52:10;16.00;99.90
20829;DHT22;10575;50.124;8.582;2022-10-16T00:54:36;16.00;99.90
20829;DHT22;10575;50.124;8.582;2022-10-16T00:57:04;16.00;99.90
20829;DHT22;10575;50.124;8.582;2022-10-16T00:59:33;16.00;99.90
20829;DHT22;10575;50.124;8.582;2022-10-16T01:02:00;15.90;99.90
20829;DHT22;10575;50.124;8.582;2022-10-16T01:04:31;16.00;99.90
20829;DHT22;10575;50.124;8.582;2022-10-16T01:12:41;16.00;99.90
20829;DHT22;10575;50.124;8.582;2022-10-16T01:20:40;16.00;99.90
20829;DHT22;10575;50.124;8.582;2022-10-16T01:23:21;16.00;99.90
20829;DHT22;10575;50.124;8.582;2022-10-16T01:28:39;16.00;99.90
20829;DHT22;10575;50.124;8.582;2022-10-16T01:31:08;16.00;99.90
20829;DHT22;10575;50.124;8.582;2022-10-16T01:33:40;16.10;99.90
20829;DHT22;10575;50.124;8.582;2022-10-16T01:36:12;16.10;99.90
20829;DHT22;10575;50.124;8.582;2022-10-16T01:38:40;16.10;99.90
20829;DHT22;10575;50.124;8.582;2022-10-16T01:41:19;16.10;99.90
20829;DHT22;10575;50.124;8.582;2022-10-16T01:43:49;16.20;99.90
20829;DHT22;10575;50.124;8.582;2022-10-16T01:46:20;16.20;99.90
20829;DHT22;10575;50.124;8.582;2022-10-16T01:48:48;16.20;99.90
20829;DHT22;10575;50.124;8.582;2022-10-16T01:51:15;16.20;99.90
20829;DHT22;10575;50.124;8.582;2022-10-16T01:53:53;16.10;99.90
20829;DHT22;10575;50.124;8.582;2022-10-16T01:56:20;16.00;99.90
20829;DHT22;10575;50.124;8.582;2022-10-16T01:58:53;16.00;99.90
20829;DHT22;10575;50.124;8.582;2022-10-16T02:01:22;16.00;99.90
20829;DHT22;10575;50.124;8.582;2022-10-16T02:03:51;16.10;99.90
20829;DHT22;10575;50.124;8.582;2022-10-16T02:06:17;16.10;99.90
20829;DHT22;10575;50.124;8.582;2022-10-16T02:08:42;16.10;99.90
20829;DHT22;10575;50.124;8.582;2022-10-16T02:11:10;16.20;99.90
20829;DHT22;10575;50.124;8.582;2022-10-16T02:13:46;16.20;99.90
20829;DHT22;10575;50.124;8.582;2022-10-16T02:16:13;16.20;99.90
20829;DHT22;10575;50.124;8.582;2022-10-16T02:18:40;16.20;99.90
20829;DHT22;10575;50.124;8.582;2022-10-16T02:21:26;16.20;99.90
20829;DHT22;10575;50.124;8.582;2022-10-16T02:24:03;16.20;99.90
20829;DHT22;10575;50.124;8.582;2022-10-16T02:26:52;16.10;99.90
20829;DHT22;10575;50.124;8.582;2022-10-16T02:29:25;16.10;99.90
20829;DHT22;10575;50.124;8.582;2022-10-16T02:31:58;16.10;99.90
20829;DHT22;10575;50.124;8.582;2022-10-16T02:34:25;16.10;99.90
20829;DHT22;10575;50.124;8.582;2022-10-16T02:36:53;16.20;99.90
20829;DHT22;10575;50.124;8.582;2022-10-16T02:39:20;16.20;99.90
20829;DHT22;10575;50.124;8.582;2022-10-16T02:41:46;16.10;99.90
20829;DHT22;10575;50.124;8.582;2022-10-16T02:44:12;16.10;99.90
20829;DHT22;10575;50.124;8.582;2022-10-16T02:46:38;16.10;99.90
20829;DHT22;10575;50.124;8.582;2022-10-16T02:49:03;16.10;99.90
20829;DHT22;10575;50.124;8.582;2022-10-16T02:51:29;16.10;99.90
20829;DHT22;10575;50.124;8.582;2022-10-16T02:53:54;16.10;99.90
20829;DHT22;10575;50.124;8.582;2022-10-16T02:56:20;16.20;99.90
20829;DHT22;10575;50.124;8.582;2022-10-16T02:58:45;16.20;99.90
20829;DHT22;10575;50.124;8.582;2022-10-16T03:01:11;16.10;99.90
20829;DHT22;10575;50.124;8.582;2022-10-16T03:03:38;16.10;99.90
20829;DHT22;10575;50.124;8.582;2022-10-16T03:06:03;16.10;99.90
20829;DHT22;10575;50.124;8.582;2022-10-16T03:08:29;16.10;99.90
20829;DHT22;10575;50.124;8.582;2022-10-16T03:10:55;16.10;99.90
20829;DHT22;10575;50.124;8.582;2022-10-16T03:13:20;16.10;99.90
20829;DHT22;10575;50.124;8.582;2022-10-16T03:15:46;16.20;99.90
20829;DHT22;10575;50.124;8.582;2022-10-16T03:18:12;16.20;99.90
20829;DHT22;10575;50.124;8.582;2022-10-16T03:20:37;16.20;99.90
20829;DHT22;10575;50.124;8.582;2022-10-16T03:23:03;16.20;99.90
20829;DHT22;10575;50.124;8.582;2022-10-16T03:25:29;16.20;99.90
20829;DHT22;10575;50.124;8.582;2022-10-16T03:27:54;16.10;99.90
20829;DHT22;10575;50.124;8.582;2022-10-16T03:30:20;16.10;99.90
20829;DHT22;10575;50.124;8.582;2022-10-16T03:32:46;16.10;99.90
20829;DHT22;10575;50.124;8.582;2022-10-16T03:35:11;16.10;99.90
20829;DHT22;10575;50.124;8.582;2022-10-16T03:37:37;16.10;99.90
20829;DHT22;10575;50.124;8.582;2022-10-16T03:40:03;16.10;99.90
20829;DHT22;10575;50.124;8.582;2022-10-16T03:42:29;16.10;99.90
20829;DHT22;10575;50.124;8.582;2022-10-16T03:44:54;16.10;99.90
20829;DHT22;10575;50.124;8.582;2022-10-16T03:47:20;16.00;99.90
20829;DHT22;10575;50.124;8.582;2022-10-16T03:49:47;16.00;99.90
20829;DHT22;10575;50.124;8.582;2022-10-16T03:52:13;16.00;99.90
20829;DHT22;10575;50.124;8.582;2022-10-16T03:54:38;16.00;99.90
20829;DHT22;10575;50.124;8.582;2022-10-16T03:57:04;16.00;99.90
20829;DHT22;10575;50.124;8.582;2022-10-16T03:59:30;16.00;99.90
20829;DHT22;10575;50.124;8.582;2022-10-16T04:01:55;16.00;99.90
20829;DHT22;10575;50.124;8.582;2022-10-16T04:04:21;15.90;99.90
20829;DHT22;10575;50.124;8.582;2022-10-16T04:06:46;16.00;99.90
20829;DHT22;10575;50.124;8.582;2022-10-16T04:09:12;16.00;99.90
20829;DHT22;10575;50.124;8.582;2022-10-16T04:11:37;15.90;99.90
20829;DHT22;10575;50.124;8.582;2022-10-16T04:14:04;15.90;99.90
20829;DHT22;10575;50.124;8.582;2022-10-16T04:16:29;15.90;99.90
20829;DHT22;10575;50.124;8.582;2022-10-16T04:18:55;15.90;99.90
20829;DHT22;10575;50.124;8.582;2022-10-16T04:21:20;15.90;99.90
20829;DHT22;10575;50.124;8.582;2022-10-16T04:23:46;15.90;99.90
20829;DHT22;10575;50.124;8.582;2022-10-16T04:26:11;16.00;99.90
20829;DHT22;10575;50.124;8.582;2022-10-16T04:28:37;16.00;99.90
20829;DHT22;10575;50.124;8.582;2022-10-16T04:31:06;16.00;99.90
20829;DHT22;10575;50.124;8.582;2022-10-16T04:33:32;16.00;99.90
20829;DHT22;10575;50.124;8.582;2022-10-16T04:35:59;15.90;99.90
20829;DHT22;10575;50.124;8.582;2022-10-16T04:38:25;15.80;99.90
20829;DHT22;10575;50.124;8.582;2022-10-16T04:40:51;15.70;99.90
20829;DHT22;10575;50.124;8.582;2022-10-16T04:43:17;15.70;99.90
20829;DHT22;10575;50.124;8.582;2022-10-16T04:45:43;15.70;99.90
20829;DHT22;10575;50.124;8.582;2022-10-16T04:48:08;15.70;99.90
20829;DHT22;10575;50.124;8.582;2022-10-16T04:50:34;15.80;99.90
20829;DHT22;10575;50.124;8.582;2022-10-16T04:52:59;15.80;99.90
20829;DHT22;10575;50.124;8.582;2022-10-16T04:55:25;15.80;99.90
20829;DHT22;10575;50.124;8.582;2022-10-16T04:57:51;15.90;99.90
20829;DHT22;10575;50.124;8.582;2022-10-16T05:00:16;15.90;99.90
20829;DHT22;10575;50.124;8.582;2022-10-16T05:02:42;15.90;99.90
20829;DHT22;10575;50.124;8.582;2022-10-16T05:05:07;15.90;99.90
20829;DHT22;10575;50.124;8.582;2022-10-16T05:07:33;15.90;99.90
20829;DHT22;10575;50.124;8.582;2022-10-16T05:09:58;15.90;99.90
20829;DHT22;10575;50.124;8.582;2022-10-16T05:12:24;15.90;99.90
20829;DHT22;10575;50.124;8.582;2022-10-16T05:14:49;15.90;99.90
20829;DHT22;10575;50.124;8.582;2022-10-16T05:17:15;15.90;99.90
20829;DHT22;10575;50.124;8.582;2022-10-16T05:19:40;15.80;99.90
20829;DHT22;10575;50.124;8.582;2022-10-16T05:22:06;15.80;99.90
20829;DHT22;10575;50.124;8.582;2022-10-16T05:24:31;15.80;99.90
20829;DHT22;10575;50.124;8.582;2022-10-16T05:26:57;15.80;99.90
20829;DHT22;10575;50.124;8.582;2022-10-16T05:29:23;15.80;99.90
20829;DHT22;10575;50.124;8.582;2022-10-16T05:31:52;15.80;99.90
20829;DHT22;10575;50.124;8.582;2022-10-16T05:34:19;15.80;99.90
20829;DHT22;10575;50.124;8.582;2022-10-16T05:36:44;15.70;99.90
20829;DHT22;10575;50.124;8.582;2022-10-16T05:39:10;15.70;99.90
20829;DHT22;10575;50.124;8.582;2022-10-16T05:41:36;15.70;99.90
20829;DHT22;10575;50.124;8.582;2022-10-16T05:44:04;15.70;99.90
20829;DHT22;10575;50.124;8.582;2022-10-16T05:46:31;15.70;99.90
20829;DHT22;10575;50.124;8.582;2022-10-16T05:48:56;15.70;99.90
20829;DHT22;10575;50.124;8.582;2022-10-16T05:51:22;15.70;99.90
20829;DHT22;10575;50.124;8.582;2022-10-16T05:53:48;15.70;99.90
20829;DHT22;10575;50.124;8.582;2022-10-16T05:56:14;15.70;99.90
20829;DHT22;10575;50.124;8.582;2022-10-16T05:58:40;15.70;99.90
20829;DHT22;10575;50.124;8.582;2022-10-16T06:01:17;15.70;99.90
20829;DHT22;10575;50.124;8.582;2022-10-16T06:03:43;15.70;99.90
20829;DHT22;10575;50.124;8.582;2022-10-16T06:06:28;15.80;99.90
20829;DHT22;10575;50.124;8.582;2022-10-16T06:08:55;15.90;99.90
20829;DHT22;10575;50.124;8.582;2022-10-16T06:11:27;15.90;99.90
20829;DHT22;10575;50.124;8.582;2022-10-16T06:13:56;15.90;99.90
20829;DHT22;10575;50.124;8.582;2022-10-16T06:16:22;16.00;99.90
20829;DHT22;10575;50.124;8.582;2022-10-16T06:18:50;15.90;99.90
20829;DHT22;10575;50.124;8.582;2022-10-16T06:21:18;16.00;99.90
20829;DHT22;10575;50.124;8.582;2022-10-16T06:23:44;16.00;99.90
20829;DHT22;10575;50.124;8.582;2022-10-16T06:26:15;16.00;99.90
20829;DHT22;10575;50.124;8.582;2022-10-16T06:28:41;16.00;99.90
20829;DHT22;10575;50.124;8.582;2022-10-16T06:31:08;16.00;99.90
20829;DHT22;10575;50.124;8.582;2022-10-16T06:33:35;16.00;99.90
20829;DHT22;10575;50.124;8.582;2022-10-16T06:36:05;16.00;99.90
20829;DHT22;10575;50.124;8.582;2022-10-16T06:38:31;16.00;99.90
20829;DHT22;10575;50.124;8.582;2022-10-16T06:40:57;15.90;99.90
20829;DHT22;10575;50.124;8.582;2022-10-16T06:43:23;16.00;99.90
20829;DHT22;10575;50.124;8.582;2022-10-16T06:45:56;16.00;99.90
20829;DHT22;10575;50.124;8.582;2022-10-16T06:48:22;15.90;99.90
20829;DHT22;10575;50.124;8.582;2022-10-16T06:50:59;15.90;99.90
20829;DHT22;10575;50.124;8.582;2022-10-16T06:53:25;16.00;99.90
20829;DHT22;10575;50.124;8.582;2022-10-16T06:55:51;16.00;99.90
20829;DHT22;10575;50.124;8.582;2022-10-16T06:58:17;16.10;99.90
20829;DHT22;10575;50.124;8.582;2022-10-16T07:00:42;16.10;99.90
20829;DHT22;10575;50.124;8.582;2022-10-16T07:03:08;16.10;99.90
20829;DHT22;10575;50.124;8.582;2022-10-16T07:05:38;16.10;99.90
20829;DHT22;10575;50.124;8.582;2022-10-16T07:08:03;16.20;99.90
20829;DHT22;10575;50.124;8.582;2022-10-16T07:10:31;16.20;99.90
20829;DHT22;10575;50.124;8.582;2022-10-16T07:12:56;16.20;99.90
20829;DHT22;10575;50.124;8.582;2022-10-16T07:15:22;16.30;99.90
20829;DHT22;10575;50.124;8.582;2022-10-16T07:17:47;16.40;99.90
20829;DHT22;10575;50.124;8.582;2022-10-16T07:20:13;16.40;99.90
20829;DHT22;10575;50.124;8.582;2022-10-16T07:22:38;16.40;99.90
20829;DHT22;10575;50.124;8.582;2022-10-16T07:25:04;16.50;99.90
20829;DHT22;10575;50.124;8.582;2022-10-16T07:27:30;16.50;99.90
20829;DHT22;10575;50.124;8.582;2022-10-16T07:29:55;16.60;99.90
20829;DHT22;10575;50.124;8.582;2022-10-16T07:32:21;16.60;99.90
20829;DHT22;10575;50.124;8.582;2022-10-16T07:34:46;16.60;99.90
20829;DHT22;10575;50.124;8.582;2022-10-16T07:37:12;16.60;99.90
20829;DHT22;10575;50.124;8.582;2022-10-16T07:39:37;16.60;99.90
20829;DHT22;10575;50.124;8.582;2022-10-16T07:42:03;16.60;99.90
20829;DHT22;10575;50.124;8.582;2022-10-16T07:44:28;16.50;99.90
20829;DHT22;10575;50.124;8.582;2022-10-16T07:46:54;16.60;99.90
20829;DHT22;10575;50.124;8.582;2022-10-16T07:49:19;16.50;99.90
20829;DHT22;10575;50.124;8.582;2022-10-16T07:51:45;16.50;99.90
20829;DHT22;10575;50.124;8.582;2022-10-16T07:54:11;16.50;99.90
20829;DHT22;10575;50.124;8.582;2022-10-16T07:56:36;16.60;99.90
20829;DHT22;10575;50.124;8.582;2022-10-16T07:59:02;16.60;99.90
20829;DHT22;10575;50.124;8.582;2022-10-16T08:01:28;16.70;99.90
20829;DHT22;10575;50.124;8.582;2022-10-16T08:03:53;16.80;99.90
20829;DHT22;10575;50.124;8.582;2022-10-16T08:06:20;16.80;99.90
20829;DHT22;10575;50.124;8.582;2022-10-16T08:08:46;16.90;99.90
20829;DHT22;10575;50.124;8.582;2022-10-16T08:11:12;16.70;99.90
20829;DHT22;10575;50.124;8.582;2022-10-16T08:13:39;16.70;99.90
20829;DHT22;10575;50.124;8.582;2022-10-16T08:16:05;16.70;99.90
20829;DHT22;10575;50.124;8.582;2022-10-16T08:18:36;16.70;99.90
20829;DHT22;10575;50.124;8.582;2022-10-16T08:21:02;16.70;99.90
20829;DHT22;10575;50.124;8.582;2022-10-16T08:23:29;16.80;99.90
20829;DHT22;10575;50.124;8.582;2022-10-16T08:25:55;16.80;99.90
20829;DHT22;10575;50.124;8.582;2022-10-16T08:28:21;16.90;99.90
20829;DHT22;10575;50.124;8.582;2022-10-16T08:30:47;16.90;99.90
20829;DHT22;10575;50.124;8.582;2022-10-16T08:33:12;16.90;99.90
20829;DHT22;10575;50.124;8.582;2022-10-16T08:35:38;16.90;99.90
20829;DHT22;10575;50.124;8.582;2022-10-16T08:38:04;16.80;99.90
20829;DHT22;10575;50.124;8.582;2022-10-16T08:40:31;16.90;99.90
20829;DHT22;10575;50.124;8.582;2022-10-16T08:43:05;16.90;99.90
20829;DHT22;10575;50.124;8.582;2022-10-16T08:48:30;17.00;99.90
20829;DHT22;10575;50.124;8.582;2022-10-16T08:51:00;17.00;99.90
20829;DHT22;10575;50.124;8.582;2022-10-16T08:53:31;17.10;99.90
20829;DHT22;10575;50.124;8.582;2022-10-16T08:56:00;17.10;99.90
20829;DHT22;10575;50.124;8.582;2022-10-16T08:58:28;17.10;99.90
20829;DHT22;10575;50.124;8.582;2022-10-16T09:00:58;17.00;99.90
20829;DHT22;10575;50.124;8.582;2022-10-16T09:09:12;17.20;99.90
20829;DHT22;10575;50.124;8.582;2022-10-16T09:11:56;17.30;99.90
20829;DHT22;10575;50.124;8.582;2022-10-16T09:14:37;17.40;99.90
20829;DHT22;10575;50.124;8.582;2022-10-16T09:17:18;17.40;99.90
20829;DHT22;10575;50.124;8.582;2022-10-16T09:19:54;17.40;99.90
20829;DHT22;10575;50.124;8.582;2022-10-16T09:22:26;17.30;99.90
20829;DHT22;10575;50.124;8.582;2022-10-16T09:24:55;17.30;99.90
20829;DHT22;10575;50.124;8.582;2022-10-16T09:27:24;17.20;99.90
20829;DHT22;10575;50.124;8.582;2022-10-16T09:29:51;17.10;99.90
20829;DHT22;10575;50.124;8.582;2022-10-16T09:32:19;17.10;99.90
20829;DHT22;10575;50.124;8.582;2022-10-16T09:34:49;17.10;99.90
20829;DHT22;10575;50.124;8.582;2022-10-16T09:37:18;17.10;99.90
20829;DHT22;10575;50.124;8.582;2022-10-16T09:42:27;17.20;99.90
20829;DHT22;10575;50.124;8.582;2022-10-16T09:44:56;17.20;99.90
20829;DHT22;10575;50.124;8.582;2022-10-16T09:47:27;17.20;99.90
20829;DHT22;10575;50.124;8.582;2022-10-16T09:49:56;17.30;99.90
20829;DHT22;10575;50.124;8.582;2022-10-16T09:52:25;17.30;99.90
20829;DHT22;10575;50.124;8.582;2022-10-16T09:54:59;17.30;99.90
20829;DHT22;10575;50.124;8.582;2022-10-16T09:57:26;17.40;99.90
20829;DHT22;10575;50.124;8.582;2022-10-16T09:59:57;17.50;99.90
20829;DHT22;10575;50.124;8.582;2022-10-16T10:02:36;17.50;99.90
20829;DHT22;10575;50.124;8.582;2022-10-16T10:05:18;17.60;99.90
20829;DHT22;10575;50.124;8.582;2022-10-16T10:07:44;17.60;99.90
20829;DHT22;10575;50.124;8.582;2022-10-16T10:10:23;17.70;99.90
20829;DHT22;10575;50.124;8.582;2022-10-16T10:12:49;18.00;99.90
20829;DHT22;10575;50.124;8.582;2022-10-16T10:15:15;18.30;99.90
20829;DHT22;10575;50.124;8.582;2022-10-16T10:17:49;18.80;99.90
20829;DHT22;10575;50.124;8.582;2022-10-16T10:22:50;19.60;99.90
20829;DHT22;10575;50.124;8.582;2022-10-16T10:25:50;20.10;99.90
20829;DHT22;10575;50.124;8.582;2022-10-16T10:31:17;20.40;99.90
20829;DHT22;10575;50.124;8.582;2022-10-16T10:39:00;20.10;99.90
20829;DHT22;10575;50.124;8.582;2022-10-16T10:46:39;20.30;99.90
20829;DHT22;10575;50.124;8.582;2022-10-16T10:55:10;20.80;99.90
20829;DHT22;10575;50.124;8.582;2022-10-16T11:00:46;20.80;99.90
20829;DHT22;10575;50.124;8.582;2022-10-16T11:03:33;20.60;99.90
20829;DHT22;10575;50.124;8.582;2022-10-16T11:06:23;20.50;99.90
20829;DHT22;10575;50.124;8.582;2022-10-16T11:09:02;20.20;99.90
20829;DHT22;10575;50.124;8.582;2022-10-16T11:11:41;19.90;99.90
20829;DHT22;10575;50.124;8.582;2022-10-16T11:14:14;19.70;99.90
20829;DHT22;10575;50.124;8.582;2022-10-16T11:16:56;19.70;99.90
20829;DHT22;10575;50.124;8.582;2022-10-16T11:22:11;19.60;99.90
20829;DHT22;10575;50.124;8.582;2022-10-16T11:25:18;19.60;99.90
20829;DHT22;10575;50.124;8.582;2022-10-16T11:27:45;19.70;99.90
20829;DHT22;10575;50.124;8.582;2022-10-16T11:30:18;19.80;99.90
20829;DHT22;10575;50.124;8.582;2022-10-16T11:35:44;19.70;99.90
20829;DHT22;10575;50.124;8.582;2022-10-16T11:38:20;20.00;99.90
20829;DHT22;10575;50.124;8.582;2022-10-16T11:40:50;20.20;99.90
20829;DHT22;10575;50.124;8.582;2022-10-16T11:43:28;20.30;99.90
20829;DHT22;10575;50.124;8.582;2022-10-16T11:46:01;20.30;99.90
20829;DHT22;10575;50.124;8.582;2022-10-16T11:48:47;20.50;99.90
20829;DHT22;10575;50.124;8.582;2022-10-16T11:51:29;20.70;99.90
20829;DHT22;10575;50.124;8.582;2022-10-16T11:56:39;20.60;99.90
20829;DHT22;10575;50.124;8.582;2022-10-16T11:59:30;20.50;99.90
20829;DHT22;10575;50.124;8.582;2022-10-16T12:05:02;19.90;99.90
20829;DHT22;10575;50.124;8.582;2022-10-16T12:07:37;19.90;99.90
20829;DHT22;10575;50.124;8.582;2022-10-16T12:10:19;20.00;99.90
20829;DHT22;10575;50.124;8.582;2022-10-16T12:12:45;20.00;99.90
20829;DHT22;10575;50.124;8.582;2022-10-16T12:15:25;20.00;99.90
20829;DHT22;10575;50.124;8.582;2022-10-16T12:17:51;20.10;99.90
20829;DHT22;10575;50.124;8.582;2022-10-16T12:23:00;20.20;99.90
20829;DHT22;10575;50.124;8.582;2022-10-16T12:28:06;20.00;99.90
20829;DHT22;10575;50.124;8.582;2022-10-16T12:30:36;20.10;99.90
20829;DHT22;10575;50.124;8.582;2022-10-16T12:33:05;20.00;99.90
20829;DHT22;10575;50.124;8.582;2022-10-16T12:35:34;20.10;99.90
20829;DHT22;10575;50.124;8.582;2022-10-16T12:38:08;20.20;99.90
20829;DHT22;10575;50.124;8.582;2022-10-16T12:40:38;20.20;99.90
20829;DHT22;10575;50.124;8.582;2022-10-16T12:43:25;20.30;99.90
20829;DHT22;10575;50.124;8.582;2022-10-16T12:48:41;20.60;99.90
20829;DHT22;10575;50.124;8.582;2022-10-16T12:51:34;20.70;99.90
20829;DHT22;10575;50.124;8.582;2022-10-16T12:56:51;20.60;99.90
20829;DHT22;10575;50.124;8.582;2022-10-16T13:07:53;20.10;99.90
20829;DHT22;10575;50.124;8.582;2022-10-16T13:10:27;20.00;99.90
20829;DHT22;10575;50.124;8.582;2022-10-16T13:13:01;20.00;99.90
20829;DHT22;10575;50.124;8.582;2022-10-16T13:21:02;20.30;99.90
20829;DHT22;10575;50.124;8.582;2022-10-16T13:26:47;20.40;99.90
20829;DHT22;10575;50.124;8.582;2022-10-16T13:29:15;20.30;99.90
20829;DHT22;10575;50.124;8.582;2022-10-16T13:31:42;20.30;99.90
20829;DHT22;10575;50.124;8.582;2022-10-16T13:34:14;20.20;99.90
20829;DHT22;10575;50.124;8.582;2022-10-16T13:36:49;20.20;99.90
20829;DHT22;10575;50.124;8.582;2022-10-16T13:39:25;20.30;99.90
20829;DHT22;10575;50.124;8.582;2022-10-16T13:42:34;20.30;99.90
20829;DHT22;10575;50.124;8.582;2022-10-16T13:44:54;20.40;99.90
20829;DHT22;10575;50.124;8.582;2022-10-16T13:47:29;20.50;99.90
20829;DHT22;10575;50.124;8.582;2022-10-16T13:50:03;20.40;99.90
20829;DHT22;10575;50.124;8.582;2022-10-16T13:52:29;20.30;99.90
20829;DHT22;10575;50.124;8.582;2022-10-16T13:54:54;20.30;99.90
20829;DHT22;10575;50.124;8.582;2022-10-16T13:57:22;20.20;99.90
20829;DHT22;10575;50.124;8.582;2022-10-16T13:59:48;20.20;99.90
20829;DHT22;10575;50.124;8.582;2022-10-16T14:04:46;20.20;99.90
20829;DHT22;10575;50.124;8.582;2022-10-16T14:07:23;20.20;99.90
20829;DHT22;10575;50.124;8.582;2022-10-16T14:09:50;20.20;99.90
20829;DHT22;10575;50.124;8.582;2022-10-16T14:12:16;20.10;99.90
20829;DHT22;10575;50.124;8.582;2022-10-16T14:14:46;20.00;99.90
20829;DHT22;10575;50.124;8.582;2022-10-16T14:17:20;20.00;99.90
20829;DHT22;10575;50.124;8.582;2022-10-16T14:19:48;19.90;99.90
20829;DHT22;10575;50.124;8.582;2022-10-16T14:22:35;19.80;99.90
20829;DHT22;10575;50.124;8.582;2022-10-16T14:27:45;19.70;99.90
20829;DHT22;10575;50.124;8.582;2022-10-16T14:32:36;19.60;99.90
20829;DHT22;10575;50.124;8.582;2022-10-16T14:35:32;19.70;99.90
20829;DHT22;10575;50.124;8.582;2022-10-16T14:37:59;19.60;99.90
20829;DHT22;10575;50.124;8.582;2022-10-16T14:40:28;19.70;99.90
20829;DHT22;10575;50.124;8.582;2022-10-16T14:42:54;19.70;99.90
20829;DHT22;10575;50.124;8.582;2022-10-16T14:45:23;19.80;99.90
20829;DHT22;10575;50.124;8.582;2022-10-16T14:47:55;19.80;99.90
20829;DHT22;10575;50.124;8.582;2022-10-16T14:50:21;19.90;99.90
20829;DHT22;10575;50.124;8.582;2022-10-16T14:52:47;19.90;99.90
20829;DHT22;10575;50.124;8.582;2022-10-16T14:55:13;19.80;99.90
20829;DHT22;10575;50.124;8.582;2022-10-16T14:57:39;19.80;99.90
20829;DHT22;10575;50.124;8.582;2022-10-16T15:00:20;19.70;99.90
20829;DHT22;10575;50.124;8.582;2022-10-16T15:02:47;19.70;99.90
20829;DHT22;10575;50.124;8.582;2022-10-16T15:07:45;19.70;99.90
20829;DHT22;10575;50.124;8.582;2022-10-16T15:10:13;19.70;99.90
20829;DHT22;10575;50.124;8.582;2022-10-16T15:12:38;19.70;99.90
20829;DHT22;10575;50.124;8.582;2022-10-16T15:17:56;19.60;99.90
20829;DHT22;10575;50.124;8.582;2022-10-16T15:20:27;19.60;99.90
20829;DHT22;10575;50.124;8.582;2022-10-16T15:22:53;19.60;99.90
20829;DHT22;10575;50.124;8.582;2022-10-16T15:25:33;19.60;99.90
20829;DHT22;10575;50.124;8.582;2022-10-16T15:28:00;19.60;99.90
20829;DHT22;10575;50.124;8.582;2022-10-16T15:30:26;19.50;99.90
20829;DHT22;10575;50.124;8.582;2022-10-16T15:32:52;19.50;99.90
20829;DHT22;10575;50.124;8.582;2022-10-16T15:35:18;19.50;99.90
20829;DHT22;10575;50.124;8.582;2022-10-16T15:37:43;19.50;99.90
20829;DHT22;10575;50.124;8.582;2022-10-16T15:40:10;19.40;99.90
20829;DHT22;10575;50.124;8.582;2022-10-16T15:42:35;19.40;99.90
20829;DHT22;10575;50.124;8.582;2022-10-16T15:45:02;19.30;99.90
20829;DHT22;10575;50.124;8.582;2022-10-16T15:47:28;19.30;99.90
20829;DHT22;10575;50.124;8.582;2022-10-16T15:49:54;19.30;99.90
20829;DHT22;10575;50.124;8.582;2022-10-16T15:52:19;19.20;99.90
20829;DHT22;10575;50.124;8.582;2022-10-16T15:54:45;19.10;99.90
20829;DHT22;10575;50.124;8.582;2022-10-16T15:57:10;19.10;99.90
20829;DHT22;10575;50.124;8.582;2022-10-16T15:59:36;19.10;99.90
20829;DHT22;10575;50.124;8.582;2022-10-16T16:02:01;19.00;99.90
20829;DHT22;10575;50.124;8.582;2022-10-16T16:04:29;19.00;99.90
20829;DHT22;10575;50.124;8.582;2022-10-16T16:06:56;19.00;99.90
20829;DHT22;10575;50.124;8.582;2022-10-16T16:09:21;18.90;99.90
20829;DHT22;10575;50.124;8.582;2022-10-16T16:11:47;18.90;99.90
20829;DHT22;10575;50.124;8.582;2022-10-16T16:14:14;18.90;99.90
20829;DHT22;10575;50.124;8.582;2022-10-16T16:16:40;18.80;99.90
20829;DHT22;10575;50.124;8.582;2022-10-16T16:19:06;18.80;99.90
20829;DHT22;10575;50.124;8.582;2022-10-16T16:21:33;18.80;99.90
20829;DHT22;10575;50.124;8.582;2022-10-16T16:23:59;18.70;99.90
20829;DHT22;10575;50.124;8.582;2022-10-16T16:26:26;18.70;99.90
20829;DHT22;10575;50.124;8.582;2022-10-16T16:28:55;18.70;99.90
20829;DHT22;10575;50.124;8.582;2022-10-16T16:31:26;18.60;99.90
20829;DHT22;10575;50.124;8.582;2022-10-16T16:33:52;18.60;99.90
20829;DHT22;10575;50.124;8.582;2022-10-16T16:36:19;18.60;99.90
20829;DHT22;10575;50.124;8.582;2022-10-16T16:38:45;18.50;99.90
20829;DHT22;10575;50.124;8.582;2022-10-16T16:41:19;18.50;99.90
20829;DHT22;10575;50.124;8.582;2022-10-16T16:43:45;18.40;99.90
20829;DHT22;10575;50.124;8.582;2022-10-16T16:46:13;18.30;99.90
20829;DHT22;10575;50.124;8.582;2022-10-16T16:48:38;18.30;99.90
20829;DHT22;10575;50.124;8.582;2022-10-16T16:51:09;18.30;99.90
20829;DHT22;10575;50.124;8.582;2022-10-16T16:53:36;18.30;99.90
20829;DHT22;10575;50.124;8.582;2022-10-16T16:56:04;18.30;99.90
20829;DHT22;10575;50.124;8.582;2022-10-16T16:58:29;18.20;99.90
20829;DHT22;10575;50.124;8.582;2022-10-16T17:00:55;18.20;99.90
20829;DHT22;10575;50.124;8.582;2022-10-16T17:03:20;18.20;99.90
20829;DHT22;10575;50.124;8.582;2022-10-16T17:06:08;18.20;99.90
20829;DHT22;10575;50.124;8.582;2022-10-16T17:08:35;18.20;99.90
20829;DHT22;10575;50.124;8.582;2022-10-16T17:11:01;18.20;99.90
20829;DHT22;10575;50.124;8.582;2022-10-16T17:13:32;18.20;99.90
20829;DHT22;10575;50.124;8.582;2022-10-16T17:16:04;18.20;99.90
20829;DHT22;10575;50.124;8.582;2022-10-16T17:18:30;18.10;99.90
20829;DHT22;10575;50.124;8.582;2022-10-16T17:20:59;18.00;99.90
20829;DHT22;10575;50.124;8.582;2022-10-16T17:23:25;18.00;99.90